MUC | München Airways

Abflüge
Zeit Nach Flug-Nr.
06:10 Verona Villafranca MUC682
18:05 Munich MUC234
14:15 Antalya MUC956
Alle Abflüge →
110
Piloten
123
Flugzeuge
814
Routen
7388
Stunden Total
9539
Flüge Total
1026
Charter Flüge
EDDM 240020Z 26003KT 3700 BR OVC007 M02/M03 Q1025 NOSIG

 LIVE MAP


DEPARTURES | ARRIVALS

Flug-Nr. ETD From To Status Gate (EDDM) In Progress
MUC682 18:30 Munich Verona Villafranca BOOKED (MUC146) 107
MUC956 07:35 Hannover Antalya BOOKED (MUC240) 108
MUC234 16:00 Madeira Munich BOOKED (MUC120) 109

Weltweite Ziele

Wir fliegen sowohl kontinentale- als auch interkontinentale Ziele an

Flotte

München Airways ist mit einer der modernsten Flotten weltweit unterwegs

Real ATC

Wir fliegen auf dem Online-Netzwerk "IVAO". Nach Standardphrasen der DFS fliegen wir problemlos durch verschiedenste Lufträume

Soziales

Bei unserer Airline ist sowohl der Spass als auch die Beziehung zwischen den Piloten sehr wertvoll

Reale Flugrouten

Alle Routen werden von uns geprüft und täglich aktualisiert. Sommer- sowie Winterflugpläne bringen euch viel Abwechslung

Teamspeak 3

Mittels des Teamspeak 3 Servers können die Piloten zusammen fliegen oder sich gegenseitig austauschen

 LIVEBOARD

 KOMMENDE EVENTS

EventDatum

 NOTAMS

NOTAMDatum

*/